Decoded Metar for CYMH (MARY'S HARBOUR in NL, CANADA) (IATA:YMH) | Meteo·Mobile Aviation Weather
aviador You're here:

CYMH Decoded Metar

MARY'S HARBOUR in NL, CANADA
Report Time2018-09-23 13:00:00
UTC Time2018-09-23 13:57:37
Flight Rules vfr VFR
Wind250° at 23 Gusting to 32 kt
W.Decomp.*RWY 29: 22.1 kt HW 6.3 kt LCW
W.Rank250° ranks 4
Current wind is above 250° avg. (8.7)
Visibility9999 m
Phenomena:N/A
Clouds:N/A
Expected CloudBase > 6,000 ft AGL from Temp-Dew spread
CeilingNone
Temp07°C (ISA -8)
Dew Point-8°C (34% RH)
AAT-4.2°C
QNH1008 hPa
Density Alt-699 ft
Elevation36 ft
Report Wrong Elevation
Raw Report
CYMH 231300Z AUTO 25023G32KT 9SM CLR 07/M08 A2977 RMK SLP084=

Extra information for CYMH:More info

Metar Taf Metar & Taf Last 4 Metars F.Rules Stats Wind Profile Meteogram Temp Stats Airport Information Weather charts Add Link Nearby VenuesMetar ALERT Operation Metar Decoded Social comments